sensor_id;sensor_type;location;lat;lon;timestamp;pressure;altitude;pressure_sealevel;temperature;humidity
82416;BME280;72058;47.782;10.618;2024-03-23T00:55:03;92925.69;;;10.23;56.56
82416;BME280;72058;47.782;10.618;2024-03-23T00:57:28;92921.28;;;10.18;57.22
82416;BME280;72058;47.782;10.618;2024-03-23T00:59:54;92914.03;;;10.22;57.03
82416;BME280;72058;47.782;10.618;2024-03-23T01:02:19;92916.63;;;10.19;57.01
82416;BME280;72058;47.782;10.618;2024-03-23T01:04:45;92914.50;;;10.24;56.59
82416;BME280;72058;47.782;10.618;2024-03-23T01:07:10;92914.72;;;10.19;56.97
82416;BME280;72058;47.782;10.618;2024-03-23T01:09:35;92910.97;;;10.24;56.46
82416;BME280;72058;47.782;10.618;2024-03-23T01:12:04;92909.53;;;10.26;56.44
82416;BME280;72058;47.782;10.618;2024-03-23T01:14:29;92902.09;;;10.36;56.34
82416;BME280;72058;47.782;10.618;2024-03-23T01:16:54;92906.78;;;10.47;55.46
82416;BME280;72058;47.782;10.618;2024-03-23T01:19:20;92899.69;;;10.55;54.86
82416;BME280;72058;47.782;10.618;2024-03-23T01:21:45;92896.44;;;10.61;54.48
82416;BME280;72058;47.782;10.618;2024-03-23T01:24:10;92897.28;;;10.74;53.99
82416;BME280;72058;47.782;10.618;2024-03-23T01:26:36;92891.28;;;10.81;53.91
82416;BME280;72058;47.782;10.618;2024-03-23T01:29:02;92891.72;;;10.71;54.17
82416;BME280;72058;47.782;10.618;2024-03-23T01:31:27;92888.16;;;10.58;54.84
82416;BME280;72058;47.782;10.618;2024-03-23T01:33:53;92890.78;;;10.67;54.40
82416;BME280;72058;47.782;10.618;2024-03-23T01:36:18;92883.13;;;10.48;55.03
82416;BME280;72058;47.782;10.618;2024-03-23T01:38:43;92878.28;;;10.53;55.09
82416;BME280;72058;47.782;10.618;2024-03-23T01:41:09;92882.31;;;10.47;55.26
82416;BME280;72058;47.782;10.618;2024-03-23T01:43:34;92874.91;;;10.36;55.55
82416;BME280;72058;47.782;10.618;2024-03-23T01:45:59;92870.94;;;10.33;55.61
82416;BME280;72058;47.782;10.618;2024-03-23T01:48:25;92870.28;;;10.36;55.63
82416;BME280;72058;47.782;10.618;2024-03-23T01:50:50;92868.44;;;10.28;55.92
82416;BME280;72058;47.782;10.618;2024-03-23T01:53:15;92868.16;;;10.21;56.29
82416;BME280;72058;47.782;10.618;2024-03-23T01:55:47;92866.94;;;10.10;56.58
82416;BME280;72058;47.782;10.618;2024-03-23T01:58:12;92859.78;;;10.05;56.94
82416;BME280;72058;47.782;10.618;2024-03-23T02:00:38;92864.22;;;10.31;56.33
82416;BME280;72058;47.782;10.618;2024-03-23T02:03:25;92860.13;;;10.04;57.18
82416;BME280;72058;47.782;10.618;2024-03-23T02:05:51;92855.88;;;10.15;56.99
82416;BME280;72058;47.782;10.618;2024-03-23T02:08:18;92849.97;;;9.92;57.43
82416;BME280;72058;47.782;10.618;2024-03-23T02:10:45;92849.97;;;9.92;57.48
82416;BME280;72058;47.782;10.618;2024-03-23T02:13:10;92840.75;;;9.84;57.79
82416;BME280;72058;47.782;10.618;2024-03-23T02:15:35;92845.81;;;9.95;57.59
82416;BME280;72058;47.782;10.618;2024-03-23T02:18:01;92840.56;;;10.10;57.17
82416;BME280;72058;47.782;10.618;2024-03-23T02:20:26;92839.38;;;9.99;57.44
82416;BME280;72058;47.782;10.618;2024-03-23T02:22:53;92838.16;;;9.88;57.58
82416;BME280;72058;47.782;10.618;2024-03-23T02:25:18;92839.63;;;9.85;57.58
82416;BME280;72058;47.782;10.618;2024-03-23T02:27:44;92840.34;;;9.74;58.14
82416;BME280;72058;47.782;10.618;2024-03-23T02:30:09;92844.88;;;9.70;58.37
82416;BME280;72058;47.782;10.618;2024-03-23T02:32:35;92835.56;;;9.71;58.39
82416;BME280;72058;47.782;10.618;2024-03-23T02:35:00;92825.97;;;9.73;58.10
82416;BME280;72058;47.782;10.618;2024-03-23T02:37:26;92833.00;;;9.74;58.05
82416;BME280;72058;47.782;10.618;2024-03-23T02:39:51;92828.69;;;9.73;57.99
82416;BME280;72058;47.782;10.618;2024-03-23T02:42:16;92825.38;;;9.68;58.24
82416;BME280;72058;47.782;10.618;2024-03-23T02:44:43;92829.75;;;9.60;58.39
82416;BME280;72058;47.782;10.618;2024-03-23T02:47:08;92820.97;;;9.55;58.40
82416;BME280;72058;47.782;10.618;2024-03-23T02:49:34;92815.16;;;9.44;58.82
82416;BME280;72058;47.782;10.618;2024-03-23T02:51:59;92818.19;;;9.42;59.11
82416;BME280;72058;47.782;10.618;2024-03-23T02:54:24;92813.25;;;9.44;58.79
82416;BME280;72058;47.782;10.618;2024-03-23T02:56:50;92814.00;;;9.54;57.78
82416;BME280;72058;47.782;10.618;2024-03-23T02:59:15;92813.78;;;9.59;57.57
82416;BME280;72058;47.782;10.618;2024-03-23T03:01:40;92815.69;;;9.58;57.50
82416;BME280;72058;47.782;10.618;2024-03-23T03:04:06;92810.84;;;9.64;57.21
82416;BME280;72058;47.782;10.618;2024-03-23T03:06:31;92811.66;;;9.64;57.17
82416;BME280;72058;47.782;10.618;2024-03-23T03:08:56;92804.56;;;9.72;56.94
82416;BME280;72058;47.782;10.618;2024-03-23T03:11:23;92801.41;;;9.70;56.89
82416;BME280;72058;47.782;10.618;2024-03-23T03:13:48;92803.50;;;9.64;57.00
82416;BME280;72058;47.782;10.618;2024-03-23T03:16:13;92799.69;;;9.65;57.15
82416;BME280;72058;47.782;10.618;2024-03-23T03:18:39;92793.19;;;9.58;57.41
82416;BME280;72058;47.782;10.618;2024-03-23T03:21:09;92783.75;;;9.55;57.36
82416;BME280;72058;47.782;10.618;2024-03-23T03:23:38;92785.41;;;9.47;57.69
82416;BME280;72058;47.782;10.618;2024-03-23T03:26:07;92779.59;;;9.58;57.25
82416;BME280;72058;47.782;10.618;2024-03-23T03:28:32;92779.22;;;9.68;56.93
82416;BME280;72058;47.782;10.618;2024-03-23T03:30:59;92771.00;;;9.76;56.41
82416;BME280;72058;47.782;10.618;2024-03-23T03:33:24;92769.00;;;9.85;56.10
82416;BME280;72058;47.782;10.618;2024-03-23T03:35:49;92758.16;;;9.85;56.00
82416;BME280;72058;47.782;10.618;2024-03-23T03:38:16;92758.69;;;9.79;56.27
82416;BME280;72058;47.782;10.618;2024-03-23T03:40:42;92750.94;;;9.69;56.71
82416;BME280;72058;47.782;10.618;2024-03-23T03:43:07;92745.69;;;9.64;56.84
82416;BME280;72058;47.782;10.618;2024-03-23T03:45:32;92740.41;;;9.67;56.84
82416;BME280;72058;47.782;10.618;2024-03-23T03:47:58;92740.00;;;9.77;56.14
82416;BME280;72058;47.782;10.618;2024-03-23T03:50:24;92742.19;;;9.84;55.98
82416;BME280;72058;47.782;10.618;2024-03-23T03:52:50;92737.47;;;9.93;55.53
82416;BME280;72058;47.782;10.618;2024-03-23T03:55:15;92728.09;;;10.03;55.34
82416;BME280;72058;47.782;10.618;2024-03-23T03:57:41;92727.88;;;10.08;54.86
82416;BME280;72058;47.782;10.618;2024-03-23T04:00:07;92717.25;;;10.15;54.61
82416;BME280;72058;47.782;10.618;2024-03-23T04:02:36;92711.81;;;10.15;54.55
82416;BME280;72058;47.782;10.618;2024-03-23T04:05:02;92707.88;;;10.12;54.79
82416;BME280;72058;47.782;10.618;2024-03-23T04:07:28;92708.94;;;10.20;54.40
82416;BME280;72058;47.782;10.618;2024-03-23T04:09:54;92700.44;;;10.21;54.33
82416;BME280;72058;47.782;10.618;2024-03-23T04:12:19;92695.00;;;10.21;54.40
82416;BME280;72058;47.782;10.618;2024-03-23T04:14:45;92691.63;;;10.24;54.24
82416;BME280;72058;47.782;10.618;2024-03-23T04:17:10;92692.19;;;10.30;54.14
82416;BME280;72058;47.782;10.618;2024-03-23T04:19:36;92683.94;;;10.26;54.19
82416;BME280;72058;47.782;10.618;2024-03-23T04:22:02;92682.66;;;10.24;54.05
82416;BME280;72058;47.782;10.618;2024-03-23T04:24:28;92673.63;;;10.32;54.08
82416;BME280;72058;47.782;10.618;2024-03-23T04:26:54;92663.06;;;10.18;54.21
82416;BME280;72058;47.782;10.618;2024-03-23T04:29:19;92656.59;;;10.23;54.16
82416;BME280;72058;47.782;10.618;2024-03-23T04:31:44;92643.25;;;10.30;54.12
82416;BME280;72058;47.782;10.618;2024-03-23T04:34:10;92662.75;;;9.99;54.95
82416;BME280;72058;47.782;10.618;2024-03-23T04:36:35;92649.09;;;10.08;55.26
82416;BME280;72058;47.782;10.618;2024-03-23T04:39:01;92654.59;;;9.87;55.85
82416;BME280;72058;47.782;10.618;2024-03-23T04:41:26;92653.53;;;9.79;56.42
82416;BME280;72058;47.782;10.618;2024-03-23T04:43:52;92649.78;;;9.72;56.41
82416;BME280;72058;47.782;10.618;2024-03-23T04:46:17;92650.81;;;9.79;56.31
82416;BME280;72058;47.782;10.618;2024-03-23T04:48:43;92651.28;;;9.81;56.06
82416;BME280;72058;47.782;10.618;2024-03-23T04:51:10;92648.16;;;9.92;55.82
82416;BME280;72058;47.782;10.618;2024-03-23T04:53:37;92653.25;;;9.93;55.70
82416;BME280;72058;47.782;10.618;2024-03-23T04:56:03;92641.50;;;10.01;55.45
82416;BME280;72058;47.782;10.618;2024-03-23T04:58:29;92643.97;;;10.06;55.51
82416;BME280;72058;47.782;10.618;2024-03-23T05:00:55;92645.34;;;10.00;55.75
82416;BME280;72058;47.782;10.618;2024-03-23T05:03:21;92637.22;;;10.12;55.24
82416;BME280;72058;47.782;10.618;2024-03-23T05:05:47;92635.19;;;10.21;55.11
82416;BME280;72058;47.782;10.618;2024-03-23T05:08:13;92627.97;;;10.25;55.14
82416;BME280;72058;47.782;10.618;2024-03-23T05:10:39;92627.28;;;10.41;54.68
82416;BME280;72058;47.782;10.618;2024-03-23T05:13:04;92630.47;;;10.55;54.18
82416;BME280;72058;47.782;10.618;2024-03-23T05:15:29;92628.66;;;10.71;53.85
82416;BME280;72058;47.782;10.618;2024-03-23T05:17:55;92617.75;;;10.83;53.39
82416;BME280;72058;47.782;10.618;2024-03-23T05:20:20;92617.38;;;10.97;53.04
82416;BME280;72058;47.782;10.618;2024-03-23T05:22:46;92619.97;;;11.06;52.62
82416;BME280;72058;47.782;10.618;2024-03-23T05:25:11;92611.38;;;11.03;52.52
82416;BME280;72058;47.782;10.618;2024-03-23T05:27:37;92612.97;;;11.05;52.77
82416;BME280;72058;47.782;10.618;2024-03-23T05:30:03;92603.66;;;11.06;52.57
82416;BME280;72058;47.782;10.618;2024-03-23T05:32:29;92606.50;;;11.09;52.40
82416;BME280;72058;47.782;10.618;2024-03-23T05:34:54;92593.41;;;11.15;52.65
82416;BME280;72058;47.782;10.618;2024-03-23T05:37:23;92597.06;;;11.19;52.68
82416;BME280;72058;47.782;10.618;2024-03-23T05:39:49;92578.78;;;11.19;52.80
82416;BME280;72058;47.782;10.618;2024-03-23T05:42:18;92576.94;;;11.23;52.92
82416;BME280;72058;47.782;10.618;2024-03-23T05:44:47;92579.06;;;11.30;52.68
82416;BME280;72058;47.782;10.618;2024-03-23T05:47:13;92582.03;;;11.37;52.82
82416;BME280;72058;47.782;10.618;2024-03-23T05:49:40;92577.22;;;11.46;52.27
82416;BME280;72058;47.782;10.618;2024-03-23T05:52:07;92568.09;;;11.54;52.48
82416;BME280;72058;47.782;10.618;2024-03-23T05:54:33;92559.66;;;11.59;52.01
82416;BME280;72058;47.782;10.618;2024-03-23T05:56:58;92559.50;;;11.68;51.83
82416;BME280;72058;47.782;10.618;2024-03-23T05:59:24;92558.59;;;11.76;51.73
82416;BME280;72058;47.782;10.618;2024-03-23T06:01:49;92543.47;;;11.78;51.47
82416;BME280;72058;47.782;10.618;2024-03-23T06:04:15;92547.34;;;11.93;51.28
82416;BME280;72058;47.782;10.618;2024-03-23T06:06:40;92531.88;;;11.97;51.59
82416;BME280;72058;47.782;10.618;2024-03-23T06:09:05;92524.59;;;12.01;51.71
82416;BME280;72058;47.782;10.618;2024-03-23T06:11:31;92519.41;;;12.12;51.99
82416;BME280;72058;47.782;10.618;2024-03-23T06:13:56;92507.53;;;12.20;52.11
82416;BME280;72058;47.782;10.618;2024-03-23T06:16:22;92494.50;;;12.29;51.24
82416;BME280;72058;47.782;10.618;2024-03-23T06:18:48;92486.47;;;12.36;51.12
82416;BME280;72058;47.782;10.618;2024-03-23T06:21:14;92490.59;;;12.46;50.97
82416;BME280;72058;47.782;10.618;2024-03-23T06:23:40;92477.25;;;12.60;50.46
82416;BME280;72058;47.782;10.618;2024-03-23T06:26:06;92482.78;;;12.64;50.63
82416;BME280;72058;47.782;10.618;2024-03-23T06:28:31;92481.09;;;12.75;49.82
82416;BME280;72058;47.782;10.618;2024-03-23T06:30:57;92477.66;;;12.78;49.69
82416;BME280;72058;47.782;10.618;2024-03-23T06:33:22;92463.22;;;12.77;50.17
82416;BME280;72058;47.782;10.618;2024-03-23T06:35:51;92462.47;;;12.80;49.82
82416;BME280;72058;47.782;10.618;2024-03-23T06:38:17;92467.16;;;12.80;49.96
82416;BME280;72058;47.782;10.618;2024-03-23T06:40:43;92473.25;;;12.73;50.38
82416;BME280;72058;47.782;10.618;2024-03-23T06:43:13;92475.63;;;12.75;50.25
82416;BME280;72058;47.782;10.618;2024-03-23T06:45:38;92478.34;;;12.75;50.54
82416;BME280;72058;47.782;10.618;2024-03-23T06:48:04;92479.44;;;12.70;50.13
82416;BME280;72058;47.782;10.618;2024-03-23T06:50:33;92482.53;;;12.69;50.39
82416;BME280;72058;47.782;10.618;2024-03-23T06:52:58;92484.25;;;12.77;49.16
82416;BME280;72058;47.782;10.618;2024-03-23T06:55:24;92503.78;;;12.79;49.03
82416;BME280;72058;47.782;10.618;2024-03-23T06:57:50;92503.06;;;12.82;49.07
82416;BME280;72058;47.782;10.618;2024-03-23T07:00:15;92518.03;;;12.88;47.77
82416;BME280;72058;47.782;10.618;2024-03-23T07:02:41;92535.81;;;12.82;48.08
82416;BME280;72058;47.782;10.618;2024-03-23T07:05:06;92549.25;;;12.71;48.43
82416;BME280;72058;47.782;10.618;2024-03-23T07:07:32;92571.78;;;12.68;49.48
82416;BME280;72058;47.782;10.618;2024-03-23T07:09:57;92584.47;;;12.61;50.84
82416;BME280;72058;47.782;10.618;2024-03-23T07:12:23;92578.41;;;12.51;51.88
82416;BME280;72058;47.782;10.618;2024-03-23T07:14:48;92596.72;;;12.35;53.07
82416;BME280;72058;47.782;10.618;2024-03-23T07:17:13;92584.56;;;12.33;53.11
82416;BME280;72058;47.782;10.618;2024-03-23T07:19:39;92591.44;;;12.27;53.37
82416;BME280;72058;47.782;10.618;2024-03-23T07:22:04;92605.50;;;12.13;55.04
82416;BME280;72058;47.782;10.618;2024-03-23T07:24:29;92622.03;;;12.04;56.03
82416;BME280;72058;47.782;10.618;2024-03-23T07:26:56;92626.84;;;11.95;56.85
82416;BME280;72058;47.782;10.618;2024-03-23T07:29:23;92637.25;;;11.77;58.51
82416;BME280;72058;47.782;10.618;2024-03-23T07:31:48;92643.63;;;11.69;59.50
82416;BME280;72058;47.782;10.618;2024-03-23T07:34:13;92670.69;;;11.50;60.81
82416;BME280;72058;47.782;10.618;2024-03-23T07:36:39;92670.94;;;11.45;61.66
82416;BME280;72058;47.782;10.618;2024-03-23T07:39:04;92700.34;;;11.39;63.16
82416;BME280;72058;47.782;10.618;2024-03-23T07:41:29;92692.00;;;11.08;64.99
82416;BME280;72058;47.782;10.618;2024-03-23T07:43:55;92689.72;;;10.98;65.96
82416;BME280;72058;47.782;10.618;2024-03-23T07:46:21;92691.91;;;10.92;66.80
82416;BME280;72058;47.782;10.618;2024-03-23T07:48:46;92706.75;;;10.83;67.75
82416;BME280;72058;47.782;10.618;2024-03-23T07:51:22;92707.56;;;10.71;67.95
82416;BME280;72058;47.782;10.618;2024-03-23T07:53:48;92716.59;;;10.63;68.91
82416;BME280;72058;47.782;10.618;2024-03-23T07:56:14;92726.56;;;10.59;69.67
82416;BME280;72058;47.782;10.618;2024-03-23T07:58:44;92732.13;;;10.62;69.28
82416;BME280;72058;47.782;10.618;2024-03-23T08:01:14;92732.66;;;10.44;70.10
82416;BME280;72058;47.782;10.618;2024-03-23T08:03:42;92754.75;;;10.42;69.53
82416;BME280;72058;47.782;10.618;2024-03-23T08:06:25;92748.03;;;10.40;69.33
82416;BME280;72058;47.782;10.618;2024-03-23T08:08:54;92730.59;;;10.29;69.02
82416;BME280;72058;47.782;10.618;2024-03-23T08:11:31;92747.78;;;10.20;68.36
82416;BME280;72058;47.782;10.618;2024-03-23T08:13:58;92752.91;;;10.13;68.22
82416;BME280;72058;47.782;10.618;2024-03-23T08:16:24;92758.00;;;10.03;69.16
82416;BME280;72058;47.782;10.618;2024-03-23T08:18:52;92767.59;;;9.79;70.79
82416;BME280;72058;47.782;10.618;2024-03-23T08:21:18;92773.97;;;9.63;71.31
82416;BME280;72058;47.782;10.618;2024-03-23T08:23:43;92778.69;;;9.54;72.49
82416;BME280;72058;47.782;10.618;2024-03-23T08:26:10;92769.41;;;9.55;72.89
82416;BME280;72058;47.782;10.618;2024-03-23T08:28:35;92769.41;;;9.55;72.46
82416;BME280;72058;47.782;10.618;2024-03-23T08:31:08;92758.28;;;9.47;72.99
82416;BME280;72058;47.782;10.618;2024-03-23T08:33:34;92772.59;;;9.57;72.62
82416;BME280;72058;47.782;10.618;2024-03-23T08:38:29;92775.13;;;9.62;73.00
82416;BME280;72058;47.782;10.618;2024-03-23T08:41:10;92777.09;;;9.52;72.97
82416;BME280;72058;47.782;10.618;2024-03-23T08:43:37;92772.63;;;9.48;73.81
82416;BME280;72058;47.782;10.618;2024-03-23T08:46:10;92779.13;;;9.56;73.03
82416;BME280;72058;47.782;10.618;2024-03-23T08:48:37;92765.81;;;9.63;72.91
82416;BME280;72058;47.782;10.618;2024-03-23T08:51:06;92768.09;;;9.61;72.92
82416;BME280;72058;47.782;10.618;2024-03-23T08:53:32;92770.41;;;9.50;73.22
82416;BME280;72058;47.782;10.618;2024-03-23T08:55:58;92776.88;;;9.58;72.75
82416;BME280;72058;47.782;10.618;2024-03-23T08:58:24;92796.84;;;9.62;72.44
82416;BME280;72058;47.782;10.618;2024-03-23T09:00:51;92795.47;;;9.26;73.99
82416;BME280;72058;47.782;10.618;2024-03-23T09:03:16;92798.59;;;9.37;73.33
82416;BME280;72058;47.782;10.618;2024-03-23T09:05:42;92787.97;;;9.52;72.81
82416;BME280;72058;47.782;10.618;2024-03-23T09:08:08;92785.94;;;9.41;73.54
82416;BME280;72058;47.782;10.618;2024-03-23T09:10:40;92787.28;;;9.56;72.50
82416;BME280;72058;47.782;10.618;2024-03-23T09:13:06;92786.38;;;9.51;72.50
82416;BME280;72058;47.782;10.618;2024-03-23T09:15:37;92785.50;;;9.60;72.45
82416;BME280;72058;47.782;10.618;2024-03-23T09:18:03;92798.34;;;9.50;72.65
82416;BME280;72058;47.782;10.618;2024-03-23T09:20:29;92809.47;;;9.58;72.56
82416;BME280;72058;47.782;10.618;2024-03-23T09:22:57;92871.66;;;9.50;73.46
82416;BME280;72058;47.782;10.618;2024-03-23T09:25:22;92896.56;;;9.52;72.69
82416;BME280;72058;47.782;10.618;2024-03-23T09:27:48;92907.09;;;9.16;68.02
82416;BME280;72058;47.782;10.618;2024-03-23T09:30:13;92913.09;;;8.84;68.30
82416;BME280;72058;47.782;10.618;2024-03-23T09:32:41;92920.44;;;8.74;69.03
82416;BME280;72058;47.782;10.618;2024-03-23T09:35:06;92936.09;;;8.60;70.08
82416;BME280;72058;47.782;10.618;2024-03-23T09:37:32;92924.16;;;8.44;70.01
82416;BME280;72058;47.782;10.618;2024-03-23T09:39:57;92924.75;;;8.24;69.39
82416;BME280;72058;47.782;10.618;2024-03-23T09:42:22;92919.31;;;8.07;70.02
82416;BME280;72058;47.782;10.618;2024-03-23T09:44:50;92921.72;;;8.17;70.44
82416;BME280;72058;47.782;10.618;2024-03-23T09:47:16;92920.28;;;8.11;69.32
82416;BME280;72058;47.782;10.618;2024-03-23T09:49:41;92924.59;;;8.12;70.18
82416;BME280;72058;47.782;10.618;2024-03-23T09:52:09;92926.03;;;8.09;70.12
82416;BME280;72058;47.782;10.618;2024-03-23T09:54:35;92925.53;;;7.98;70.65
82416;BME280;72058;47.782;10.618;2024-03-23T09:57:01;92921.53;;;7.96;71.00
82416;BME280;72058;47.782;10.618;2024-03-23T09:59:26;92919.94;;;8.12;69.96
82416;BME280;72058;47.782;10.618;2024-03-23T10:01:52;92918.69;;;8.10;71.01
82416;BME280;72058;47.782;10.618;2024-03-23T10:04:40;92924.75;;;8.15;70.17
82416;BME280;72058;47.782;10.618;2024-03-23T10:07:12;92928.75;;;8.18;70.17
82416;BME280;72058;47.782;10.618;2024-03-23T10:09:38;92931.75;;;8.08;70.32
82416;BME280;72058;47.782;10.618;2024-03-23T10:12:17;92938.91;;;8.21;70.51
82416;BME280;72058;47.782;10.618;2024-03-23T10:14:43;92938.44;;;8.02;71.09
82416;BME280;72058;47.782;10.618;2024-03-23T10:17:21;92960.56;;;8.04;72.20
82416;BME280;72058;47.782;10.618;2024-03-23T10:19:51;92959.94;;;8.07;72.21
82416;BME280;72058;47.782;10.618;2024-03-23T10:22:22;92970.00;;;8.15;73.07
82416;BME280;72058;47.782;10.618;2024-03-23T10:24:48;92968.88;;;8.16;70.50
82416;BME280;72058;47.782;10.618;2024-03-23T10:27:18;92969.06;;;8.11;67.53
82416;BME280;72058;47.782;10.618;2024-03-23T10:29:50;92972.06;;;8.09;67.27
82416;BME280;72058;47.782;10.618;2024-03-23T10:32:17;92985.91;;;7.99;68.74
82416;BME280;72058;47.782;10.618;2024-03-23T10:34:43;92977.16;;;8.02;69.87
82416;BME280;72058;47.782;10.618;2024-03-23T10:37:09;92970.94;;;8.02;70.17
82416;BME280;72058;47.782;10.618;2024-03-23T10:39:39;92989.72;;;7.98;70.08
82416;BME280;72058;47.782;10.618;2024-03-23T10:42:06;92990.84;;;7.97;69.29
82416;BME280;72058;47.782;10.618;2024-03-23T10:44:33;92998.50;;;7.95;69.98
82416;BME280;72058;47.782;10.618;2024-03-23T10:46:59;93001.97;;;7.95;70.34
82416;BME280;72058;47.782;10.618;2024-03-23T10:49:30;92994.81;;;7.91;70.03
82416;BME280;72058;47.782;10.618;2024-03-23T10:52:05;92999.44;;;7.90;69.32
82416;BME280;72058;47.782;10.618;2024-03-23T10:54:32;92988.88;;;7.80;68.50
82416;BME280;72058;47.782;10.618;2024-03-23T10:57:11;93003.53;;;7.79;69.12
82416;BME280;72058;47.782;10.618;2024-03-23T10:59:39;93006.56;;;7.78;69.13
82416;BME280;72058;47.782;10.618;2024-03-23T11:02:05;93009.09;;;7.74;69.44
82416;BME280;72058;47.782;10.618;2024-03-23T11:04:37;93009.09;;;7.74;68.88
82416;BME280;72058;47.782;10.618;2024-03-23T11:09:49;92994.91;;;7.69;68.28
82416;BME280;72058;47.782;10.618;2024-03-23T11:14:52;93001.91;;;7.61;67.47
82416;BME280;72058;47.782;10.618;2024-03-23T11:17:18;93006.50;;;7.60;67.86
82416;BME280;72058;47.782;10.618;2024-03-23T11:19:44;93002.03;;;7.56;67.53
82416;BME280;72058;47.782;10.618;2024-03-23T11:25:04;92998.69;;;7.59;68.62
82416;BME280;72058;47.782;10.618;2024-03-23T11:27:29;93001.59;;;7.71;69.12
82416;BME280;72058;47.782;10.618;2024-03-23T11:29:54;92993.81;;;7.70;70.71
82416;BME280;72058;47.782;10.618;2024-03-23T11:32:34;92999.06;;;7.75;70.73
82416;BME280;72058;47.782;10.618;2024-03-23T11:35:00;93002.75;;;7.87;70.42
82416;BME280;72058;47.782;10.618;2024-03-23T11:37:25;92991.63;;;7.97;70.06
82416;BME280;72058;47.782;10.618;2024-03-23T11:39:52;93006.16;;;8.02;70.82
82416;BME280;72058;47.782;10.618;2024-03-23T11:42:17;93009.81;;;8.06;69.80
82416;BME280;72058;47.782;10.618;2024-03-23T11:44:42;93004.28;;;8.11;69.58
82416;BME280;72058;47.782;10.618;2024-03-23T11:47:08;92995.31;;;8.02;70.35
82416;BME280;72058;47.782;10.618;2024-03-23T11:49:36;92991.66;;;8.06;69.04
82416;BME280;72058;47.782;10.618;2024-03-23T11:52:06;92987.03;;;8.07;69.30
82416;BME280;72058;47.782;10.618;2024-03-23T11:54:31;92980.19;;;8.00;69.23
82416;BME280;72058;47.782;10.618;2024-03-23T11:56:58;92977.75;;;7.90;69.16
82416;BME280;72058;47.782;10.618;2024-03-23T11:59:49;92977.19;;;8.11;68.18
82416;BME280;72058;47.782;10.618;2024-03-23T12:02:18;92985.63;;;8.09;67.08
82416;BME280;72058;47.782;10.618;2024-03-23T12:04:43;92985.63;;;8.18;67.35
82416;BME280;72058;47.782;10.618;2024-03-23T12:07:27;92975.25;;;7.94;67.99
82416;BME280;72058;47.782;10.618;2024-03-23T12:10:05;92975.25;;;7.94;67.91
82416;BME280;72058;47.782;10.618;2024-03-23T12:12:33;92978.25;;;7.92;68.51
82416;BME280;72058;47.782;10.618;2024-03-23T12:15:06;92983.53;;;8.06;68.13
82416;BME280;72058;47.782;10.618;2024-03-23T12:17:32;92984.81;;;8.09;67.37
82416;BME280;72058;47.782;10.618;2024-03-23T12:19:58;92972.22;;;8.04;67.64
82416;BME280;72058;47.782;10.618;2024-03-23T12:22:24;92964.22;;;7.82;69.22
82416;BME280;72058;47.782;10.618;2024-03-23T12:24:49;92966.31;;;7.93;69.14
82416;BME280;72058;47.782;10.618;2024-03-23T12:27:15;92959.31;;;7.92;69.92
82416;BME280;72058;47.782;10.618;2024-03-23T12:29:41;92958.53;;;8.00;69.79
82416;BME280;72058;47.782;10.618;2024-03-23T12:32:12;92962.97;;;8.14;68.57
82416;BME280;72058;47.782;10.618;2024-03-23T12:34:38;92963.28;;;8.04;68.90
82416;BME280;72058;47.782;10.618;2024-03-23T12:37:03;92955.47;;;7.93;68.57
82416;BME280;72058;47.782;10.618;2024-03-23T12:39:29;92959.03;;;8.11;68.32
82416;BME280;72058;47.782;10.618;2024-03-23T12:41:54;92965.53;;;8.02;67.74
82416;BME280;72058;47.782;10.618;2024-03-23T12:44:20;92954.16;;;7.74;68.79
82416;BME280;72058;47.782;10.618;2024-03-23T12:46:46;92944.28;;;7.69;67.46
82416;BME280;72058;47.782;10.618;2024-03-23T12:49:11;92935.41;;;7.86;67.22
82416;BME280;72058;47.782;10.618;2024-03-23T12:51:37;92934.44;;;7.90;66.86
82416;BME280;72058;47.782;10.618;2024-03-23T12:54:02;92935.56;;;7.89;67.14
82416;BME280;72058;47.782;10.618;2024-03-23T12:56:28;92927.72;;;7.79;66.72
82416;BME280;72058;47.782;10.618;2024-03-23T12:58:54;92933.63;;;7.90;66.57
82416;BME280;72058;47.782;10.618;2024-03-23T13:01:25;92933.81;;;7.93;66.19
82416;BME280;72058;47.782;10.618;2024-03-23T13:03:50;92939.72;;;8.04;65.21
82416;BME280;72058;47.782;10.618;2024-03-23T13:06:16;92948.31;;;8.06;65.14
82416;BME280;72058;47.782;10.618;2024-03-23T13:08:46;92946.59;;;8.10;64.98
82416;BME280;72058;47.782;10.618;2024-03-23T13:11:12;92930.47;;;8.05;64.65
82416;BME280;72058;47.782;10.618;2024-03-23T13:13:38;92940.38;;;8.10;64.07
82416;BME280;72058;47.782;10.618;2024-03-23T13:16:04;92938.91;;;8.12;64.66
82416;BME280;72058;47.782;10.618;2024-03-23T13:18:30;92942.75;;;8.11;63.70
82416;BME280;72058;47.782;10.618;2024-03-23T13:20:56;92923.63;;;8.08;64.68
82416;BME280;72058;47.782;10.618;2024-03-23T13:23:21;92919.00;;;8.08;64.52
82416;BME280;72058;47.782;10.618;2024-03-23T13:25:55;92919.50;;;8.19;64.17
82416;BME280;72058;47.782;10.618;2024-03-23T13:28:24;92910.41;;;8.23;63.94
82416;BME280;72058;47.782;10.618;2024-03-23T13:30:53;92907.38;;;8.16;64.19
82416;BME280;72058;47.782;10.618;2024-03-23T13:33:18;92902.28;;;8.23;61.75
82416;BME280;72058;47.782;10.618;2024-03-23T13:35:54;92893.34;;;8.23;61.39
82416;BME280;72058;47.782;10.618;2024-03-23T13:38:20;92879.97;;;8.18;60.69
82416;BME280;72058;47.782;10.618;2024-03-23T13:40:52;92867.38;;;8.30;59.75
82416;BME280;72058;47.782;10.618;2024-03-23T13:43:18;92854.94;;;8.29;59.50
82416;BME280;72058;47.782;10.618;2024-03-23T13:45:44;92855.75;;;8.38;59.99
82416;BME280;72058;47.782;10.618;2024-03-23T13:48:09;92865.94;;;8.24;57.99
82416;BME280;72058;47.782;10.618;2024-03-23T13:50:35;92876.47;;;8.17;59.22
82416;BME280;72058;47.782;10.618;2024-03-23T13:53:00;92881.72;;;8.22;58.29
82416;BME280;72058;47.782;10.618;2024-03-23T13:55:25;92893.03;;;8.24;58.46
82416;BME280;72058;47.782;10.618;2024-03-23T13:57:51;92899.09;;;8.21;58.19